LWSK

Skopje Alexander the Great Airport

Skopje, Macedonia
TAF LWSK 171130Z 1712/1812 VRB02KT 9999 FEW030 BKN100 TEMPO 1715/1803 5000 SN BKN020 OVC030 BECMG 1716/1718 36010KT
Issued Valid From Valid To
Dec-17 @ 11:30 UTC
(an hour ago)
Dec-17 @ 12:00 UTC
(40 minutes ago)
Dec-18 @ 12:00 UTC
(in 23 hours)
Dec-17 @ 12:00 to Dec-17 @ 16:00
TAF LWSK 171130Z 1712/1812 VRB02KT 9999 FEW030 BKN100
Wind Visibility Clouds
Variable at 2 knots 10,000+ meters
  • Few at 3,000' AGL
  • Broken at 10,000' AGL
Temporary Dec-17 @ 15:00 to Dec-18 @ 03:00
TEMPO 1715/1803 5000 SN BKN020 OVC030
Visibility Clouds Conditions
5,005 meters
  • Broken at 2,000' AGL
  • Overcast at 3,000' AGL
  • Snow
Becoming Dec-17 @ 16:00 to Dec-18 @ 12:00
BECMG 1716/1718 36010KT
Wind Visibility Clouds
360° at 10 knots 10,000+ meters
  • Few at 3,000' AGL
  • Broken at 10,000' AGL
TAF LWSK 171130Z 1712/1812 VRB02KT 9999 FEW030 BKN100 TEMPO 1715/1803 5000 SN BKN020 OVC030 BECMG 1716/1718 36010KT
Issued Dec-17 @ 11:30 UTC
(an hour ago)
Valid From Dec-17 @ 12:00 UTC
(40 minutes ago)
Valid To Dec-18 @ 12:00 UTC
(in 23 hours)
Dec-17 @ 12:00 - Dec-17 @ 16:00
Wind Visibility
Variable at 2 knots 10,000+ meters
Clouds
  • Few at 3,000' AGL
  • Broken at 10,000' AGL
Temporary Dec-17 @ 15:00 - Dec-18 @ 03:00
Clouds
  • Broken at 2,000' AGL
  • Overcast at 3,000' AGL
Conditions
  • Snow
Becoming Dec-17 @ 16:00 - Dec-18 @ 12:00
Wind Visibility
360° at 10 knots 10,000+ meters
Clouds
  • Few at 3,000' AGL
  • Broken at 10,000' AGL